createdAt,value
2023-02-01T00:02:00.975Z,99246.66
2023-02-01T00:04:41.612Z,99244.35
2023-02-01T00:07:14.343Z,99240.73
2023-02-01T00:09:41.500Z,99235.22
2023-02-01T00:12:08.139Z,99231.48
2023-02-01T00:14:38.798Z,99231.99
2023-02-01T00:17:06.996Z,99231.86
2023-02-01T00:19:34.806Z,99225.52
2023-02-01T00:22:01.348Z,99224.40
2023-02-01T00:24:28.956Z,99222.26
2023-02-01T00:26:56.160Z,99225.92
2023-02-01T00:29:24.308Z,99225.08
2023-02-01T00:31:51.997Z,99224.81
2023-02-01T00:34:22.920Z,99226.59
2023-02-01T00:36:50.741Z,99223.19
2023-02-01T00:39:17.547Z,99219.80
2023-02-01T00:41:45.090Z,99219.33
2023-02-01T00:44:11.671Z,99223.09
2023-02-01T00:46:38.594Z,99219.02
2023-02-01T00:49:07.635Z,99223.78
2023-02-01T00:51:34.775Z,99225.30
2023-02-01T00:54:01.418Z,99228.55
2023-02-01T00:56:27.946Z,99229.70
2023-02-01T00:58:54.914Z,99233.33
2023-02-01T01:01:23.387Z,99232.52
2023-02-01T01:03:52.278Z,99231.05
2023-02-01T01:06:23.870Z,99231.68
2023-02-01T01:08:54.770Z,99232.13
2023-02-01T01:11:26.614Z,99235.36
2023-02-01T01:13:56.061Z,99237.86
2023-02-01T01:16:23.686Z,99235.94
2023-02-01T01:18:50.405Z,99234.38
2023-02-01T01:21:17.031Z,99232.33
2023-02-01T01:23:44.425Z,99234.66
2023-02-01T01:26:22.853Z,99238.77
2023-02-01T01:28:49.846Z,99237.96
2023-02-01T01:31:17.319Z,99234.55
2023-02-01T01:33:48.371Z,99235.63
2023-02-01T01:36:14.920Z,99234.61
2023-02-01T01:38:41.785Z,99235.86
2023-02-01T01:41:11.848Z,99235.38
2023-02-01T01:43:50.732Z,99236.08
2023-02-01T01:46:23.836Z,99233.70
2023-02-01T01:48:54.454Z,99235.96
2023-02-01T01:51:21.702Z,99231.25
2023-02-01T01:53:53.974Z,99229.30
2023-02-01T01:56:22.001Z,99227.05
2023-02-01T01:58:48.841Z,99226.04
2023-02-01T02:01:15.627Z,99222.70
2023-02-01T02:03:45.314Z,99219.84
2023-02-01T02:06:21.436Z,99211.26
2023-02-01T02:08:47.926Z,99209.52
2023-02-01T02:11:16.662Z,99207.58
2023-02-01T02:13:45.151Z,99211.17
2023-02-01T02:16:26.453Z,99207.95
2023-02-01T02:19:12.399Z,99206.73
2023-02-01T02:21:53.815Z,99207.61
2023-02-01T02:24:55.940Z,99203.92
2023-02-01T02:27:24.739Z,99199.67
2023-02-01T02:30:08.201Z,99198.69
2023-02-01T02:32:52.740Z,99194.19
2023-02-01T02:35:26.956Z,99195.92
2023-02-01T02:37:55.141Z,99194.38
2023-02-01T02:40:25.455Z,99190.02
2023-02-01T02:43:30.559Z,99192.33
2023-02-01T02:46:37.874Z,99192.11
2023-02-01T02:49:15.930Z,99188.92
2023-02-01T02:52:38.875Z,99194.06
2023-02-01T02:55:06.231Z,99191.93
2023-02-01T02:57:59.371Z,99192.32
2023-02-01T03:00:50.314Z,99196.52
2023-02-01T03:03:36.584Z,99193.70
2023-02-01T03:06:03.429Z,99191.88
2023-02-01T03:08:31.382Z,99191.77
2023-02-01T03:11:04.769Z,99190.90
2023-02-01T03:13:51.701Z,99197.92
2023-02-01T03:16:40.401Z,99200.16
2023-02-01T03:19:08.912Z,99204.06
2023-02-01T03:21:37.341Z,99202.36
2023-02-01T03:24:33.384Z,99203.25
2023-02-01T03:27:05.795Z,99195.80
2023-02-01T03:29:39.111Z,99194.15
2023-02-01T03:32:05.843Z,99191.70
2023-02-01T03:34:33.923Z,99193.16
2023-02-01T03:37:06.526Z,99190.80
2023-02-01T03:40:11.936Z,99189.73
2023-02-01T03:42:42.170Z,99192.98
2023-02-01T03:45:14.507Z,99190.73
2023-02-01T03:47:44.209Z,99186.67
2023-02-01T03:50:12.929Z,99184.30
2023-02-01T03:52:47.684Z,99185.55
2023-02-01T03:55:16.885Z,99186.13
2023-02-01T03:58:09.262Z,99189.24
2023-02-01T04:00:35.906Z,99186.81
2023-02-01T04:03:06.737Z,99186.89
2023-02-01T04:05:34.140Z,99188.70
2023-02-01T04:08:05.421Z,99191.96
2023-02-01T04:10:32.142Z,99193.43
2023-02-01T04:12:58.904Z,99191.08
2023-02-01T04:15:25.875Z,99190.29
2023-02-01T04:17:52.949Z,99187.36
2023-02-01T04:20:19.701Z,99192.42
2023-02-01T04:22:46.352Z,99191.61
2023-02-01T04:25:13.075Z,99194.61
2023-02-01T04:30:09.995Z,99195.70
2023-02-01T04:32:37.579Z,99197.73
2023-02-01T04:35:04.812Z,99198.96
2023-02-01T04:37:31.996Z,99195.63
2023-02-01T04:39:58.839Z,99197.71
2023-02-01T04:42:26.773Z,99193.58
2023-02-01T04:44:53.623Z,99196.13
2023-02-01T04:47:21.820Z,99193.60
2023-02-01T04:49:48.461Z,99196.73
2023-02-01T04:52:15.129Z,99194.49
2023-02-01T04:54:41.768Z,99194.00
2023-02-01T04:57:08.386Z,99194.87
2023-02-01T04:59:35.535Z,99194.02
2023-02-01T05:02:02.113Z,99199.27
2023-02-01T05:04:29.961Z,99193.06
2023-02-01T05:06:56.767Z,99193.73
2023-02-01T05:09:23.393Z,99194.06
2023-02-01T05:12:08.937Z,99195.68
2023-02-01T05:14:35.886Z,99194.87
2023-02-01T05:17:02.818Z,99197.05
2023-02-01T05:19:29.443Z,99190.86
2023-02-01T05:21:56.167Z,99191.98
2023-02-01T05:24:22.767Z,99192.18
2023-02-01T05:26:50.115Z,99191.83
2023-02-01T05:29:17.243Z,99192.06
2023-02-01T05:31:47.649Z,99191.77
2023-02-01T05:34:15.080Z,99186.06
2023-02-01T05:36:41.704Z,99182.89
2023-02-01T05:39:08.711Z,99184.39
2023-02-01T05:41:35.403Z,99182.92
2023-02-01T05:44:02.987Z,99190.54
2023-02-01T05:46:30.041Z,99186.02
2023-02-01T08:44:54.372Z,99127.85
2023-02-01T08:47:23.869Z,99124.42
2023-02-01T08:49:50.823Z,99119.27
2023-02-01T08:52:18.150Z,99113.48
2023-02-01T08:54:45.006Z,99111.73
2023-02-01T08:57:12.485Z,99106.17
2023-02-01T08:59:40.048Z,99102.77
2023-02-01T09:02:11.368Z,99095.39
2023-02-01T09:04:38.262Z,99088.77
2023-02-01T09:07:05.579Z,99084.70
2023-02-01T09:09:33.810Z,99079.89
2023-02-01T09:12:01.485Z,99086.59
2023-02-01T09:14:31.607Z,99079.58
2023-02-01T09:17:00.006Z,99079.72
2023-02-01T09:19:28.807Z,99078.84
2023-02-01T09:21:55.919Z,99072.15
2023-02-01T09:24:22.884Z,99060.42
2023-02-01T09:26:50.052Z,99053.19
2023-02-01T09:29:16.917Z,99050.92
2023-02-01T09:31:49.704Z,99048.49
2023-02-01T09:34:21.052Z,99043.92
2023-02-01T09:36:50.427Z,99034.80
2023-02-01T09:39:17.466Z,99024.62
2023-02-01T09:42:05.889Z,99019.15
2023-02-01T09:44:52.744Z,99009.28
2023-02-01T09:47:25.009Z,99014.58
2023-02-01T09:50:05.372Z,99016.12
2023-02-01T09:52:41.222Z,99007.54
2023-02-01T09:55:15.936Z,99000.25
2023-02-01T09:58:08.653Z,98994.48
2023-02-01T10:00:38.111Z,98996.38
2023-02-01T10:03:06.377Z,98991.48
2023-02-01T10:05:58.417Z,98990.66
2023-02-01T10:08:34.282Z,98993.14
2023-02-01T10:11:21.893Z,98989.16
2023-02-01T10:14:13.830Z,98987.52
2023-02-01T10:16:52.992Z,98990.52
2023-02-01T10:19:41.875Z,98987.92
2023-02-01T10:22:11.087Z,98982.86
2023-02-01T10:24:41.100Z,98979.14
2023-02-01T10:27:12.028Z,98976.50
2023-02-01T10:29:41.733Z,98976.02
2023-02-01T10:32:15.129Z,98975.25
2023-02-01T10:34:43.739Z,98976.58
2023-02-01T10:37:32.561Z,98974.02
2023-02-01T10:40:03.399Z,98975.35
2023-02-01T10:42:31.981Z,98971.17
2023-02-01T10:45:00.477Z,98967.46
2023-02-01T10:47:28.147Z,98970.63
2023-02-01T10:50:15.984Z,98970.95
2023-02-01T10:52:49.606Z,98965.67
2023-02-01T10:55:30.611Z,98963.90
2023-02-01T10:58:04.056Z,98956.90
2023-02-01T11:00:44.630Z,98960.26
2023-02-01T11:03:32.658Z,98962.84
2023-02-01T11:06:00.513Z,98962.25
2023-02-01T11:08:32.639Z,98959.52
2023-02-01T11:11:02.750Z,98957.66
2023-02-01T11:13:34.156Z,98961.84
2023-02-01T11:16:04.541Z,98964.28
2023-02-01T11:18:35.407Z,98967.50
2023-02-01T11:21:02.497Z,98967.86
2023-02-01T11:23:31.616Z,98964.06
2023-02-01T11:26:00.278Z,98968.14
2023-02-01T11:28:32.638Z,98958.42
2023-02-01T11:31:05.839Z,98959.43
2023-02-01T11:33:37.281Z,98955.34
2023-02-01T11:36:09.838Z,98950.92
2023-02-01T11:38:37.931Z,98947.88
2023-02-01T11:41:27.187Z,98946.06
2023-02-01T11:43:56.772Z,98944.24
2023-02-01T11:46:30.281Z,98942.08
2023-02-01T11:48:57.759Z,98942.16
2023-02-01T11:51:51.063Z,98938.41
2023-02-01T11:54:41.387Z,98942.44
2023-02-01T11:57:15.474Z,98938.95
2023-02-01T12:00:03.811Z,98931.05
2023-02-01T12:02:58.298Z,98932.88
2023-02-01T12:05:47.937Z,98928.48
2023-02-01T12:08:46.118Z,98925.71
2023-02-01T12:11:43.755Z,98924.96
2023-02-01T12:14:20.768Z,98925.99
2023-02-01T12:17:04.787Z,98929.82
2023-02-01T12:20:09.718Z,98927.88
2023-02-01T12:22:52.044Z,98926.23
2023-02-01T12:25:42.737Z,98920.29
2023-02-01T12:28:37.313Z,98913.65
2023-02-01T12:31:13.699Z,98913.56
2023-02-01T12:34:01.953Z,98915.64
2023-02-01T12:37:08.574Z,98911.59
2023-02-01T12:39:48.071Z,98915.70
2023-02-01T12:42:36.881Z,98915.74
2023-02-01T12:45:16.363Z,98914.59
2023-02-01T12:47:58.548Z,98911.73
2023-02-01T12:50:30.091Z,98914.68
2023-02-01T12:53:07.420Z,98915.29
2023-02-01T12:55:39.457Z,98914.17
2023-02-01T12:58:22.207Z,98911.83
2023-02-01T13:01:09.385Z,98912.96
2023-02-01T13:03:50.855Z,98908.30
2023-02-01T13:07:01.230Z,98906.55
2023-02-01T13:09:34.946Z,98910.30
2023-02-01T13:12:32.315Z,98908.16
2023-02-01T13:15:11.950Z,98904.10
2023-02-01T13:17:40.670Z,98907.50
2023-02-01T13:20:28.773Z,98901.31
2023-02-01T13:23:25.520Z,98901.27
2023-02-01T13:25:54.227Z,98905.55
2023-02-01T13:28:30.458Z,98903.62
2023-02-01T13:31:20.083Z,98900.84
2023-02-01T13:34:29.539Z,98902.40
2023-02-01T13:37:13.181Z,98898.79
2023-02-01T13:39:58.534Z,98898.42
2023-02-01T13:43:14.910Z,98898.59
2023-02-01T17:43:49.079Z,99001.77
2023-02-01T17:46:32.379Z,99002.33
2023-02-01T17:59:19.364Z,99003.59
2023-02-01T18:19:58.071Z,98998.17
2023-02-01T18:22:25.127Z,98996.37
2023-02-01T18:24:52.145Z,98997.94
2023-02-01T18:27:19.236Z,99004.17
2023-02-01T18:29:48.013Z,99004.35
2023-02-01T18:32:14.846Z,99003.03
2023-02-01T18:34:42.019Z,99007.94
2023-02-01T18:37:09.557Z,99009.76
2023-02-01T18:39:40.132Z,99007.88
2023-02-01T18:42:10.038Z,99008.14
2023-02-01T18:44:37.035Z,99007.42
2023-02-01T18:47:04.418Z,99011.09
2023-02-01T18:49:32.101Z,99009.05
2023-02-01T18:51:59.713Z,99007.36
2023-02-01T18:54:27.885Z,99006.83
2023-02-01T18:56:55.598Z,99007.48
2023-02-01T18:59:22.491Z,99007.31
2023-02-01T19:01:49.329Z,99004.06
2023-02-01T19:04:26.118Z,99005.32
2023-02-01T19:06:54.101Z,99005.91
2023-02-01T19:09:22.806Z,99003.66
2023-02-01T19:11:49.651Z,99006.81
2023-02-01T19:14:16.302Z,99004.79
2023-02-01T19:16:43.725Z,99001.17
2023-02-01T19:19:10.648Z,98998.40
2023-02-01T19:21:37.607Z,98999.58
2023-02-01T19:24:05.003Z,98995.80
2023-02-01T19:26:32.144Z,98997.54
2023-02-01T19:28:59.362Z,98997.95
2023-02-01T19:31:26.380Z,98999.86
2023-02-01T19:33:54.008Z,98995.29
2023-02-01T19:36:20.683Z,98996.55
2023-02-01T19:38:47.545Z,98994.44
2023-02-01T19:41:14.200Z,98994.82
2023-02-01T19:43:40.860Z,98992.98
2023-02-01T19:46:07.808Z,98994.91
2023-02-01T19:48:35.943Z,98990.37
2023-02-01T19:51:04.068Z,98990.09
2023-02-01T19:53:30.752Z,98991.47
2023-02-01T19:56:01.347Z,98989.98
2023-02-01T19:58:29.249Z,98988.25
2023-02-01T20:00:57.474Z,98988.59
2023-02-01T20:03:24.748Z,98987.91
2023-02-01T20:05:52.434Z,98983.98
2023-02-01T20:08:19.365Z,98985.11
2023-02-01T20:10:46.198Z,98989.66
2023-02-01T20:13:13.653Z,98987.77
2023-02-01T20:15:43.179Z,98990.30
2023-02-01T20:18:10.407Z,98989.11
2023-02-01T20:20:37.371Z,98989.31
2023-02-01T20:23:05.994Z,98986.48
2023-02-01T20:25:36.058Z,98985.38
2023-02-01T20:28:03.277Z,98986.55
2023-02-01T20:30:31.708Z,98988.02
2023-02-01T20:32:58.595Z,98989.46
2023-02-01T20:35:25.814Z,98988.28
2023-02-01T20:37:53.549Z,98984.67
2023-02-01T20:40:20.385Z,98992.67
2023-02-01T20:42:47.283Z,98987.84
2023-02-01T20:45:14.331Z,98989.83
2023-02-01T20:47:41.700Z,98982.64
2023-02-01T20:50:09.351Z,98981.71
2023-02-01T20:52:35.869Z,98982.90
2023-02-01T20:55:02.838Z,98985.13
2023-02-01T20:57:29.893Z,98983.09
2023-02-01T20:59:58.715Z,98988.44
2023-02-01T21:02:26.021Z,98996.25
2023-02-01T21:04:53.082Z,98995.14
2023-02-01T21:07:20.068Z,98995.00
2023-02-01T21:09:46.790Z,98993.45
2023-02-01T21:12:13.607Z,98999.96
2023-02-01T21:14:40.823Z,98995.79
2023-02-01T21:17:07.550Z,98994.13
2023-02-01T21:19:42.683Z,98993.60
2023-02-01T21:22:13.275Z,98995.72
2023-02-01T21:27:24.060Z,98997.68
2023-02-01T21:29:50.917Z,98998.19
2023-02-01T21:32:17.741Z,99002.28
2023-02-01T21:34:44.277Z,99003.00
2023-02-01T21:37:11.642Z,99002.40
2023-02-01T21:39:38.381Z,99002.06
2023-02-01T21:42:14.120Z,99002.25
2023-02-01T21:44:41.070Z,99000.48
2023-02-01T21:47:09.211Z,99004.97
2023-02-01T21:49:36.406Z,98998.19
2023-02-01T21:52:04.235Z,98998.23
2023-02-01T21:54:31.005Z,98997.79
2023-02-01T21:56:57.640Z,98997.61
2023-02-01T21:59:24.300Z,98994.95
2023-02-01T22:01:50.897Z,98997.00
2023-02-01T22:04:17.618Z,98995.76
2023-02-01T22:06:47.884Z,98996.81
2023-02-01T22:09:19.955Z,98993.73
2023-02-01T22:11:46.866Z,98994.89
2023-02-01T22:14:15.677Z,98997.76
2023-02-01T22:16:42.460Z,98996.00
2023-02-01T22:19:09.798Z,98998.14
2023-02-01T22:21:38.281Z,98995.71
2023-02-01T22:24:06.122Z,98996.00
2023-02-01T22:26:33.101Z,98993.65
2023-02-01T22:28:59.686Z,98995.30
2023-02-01T22:31:26.337Z,98991.10
2023-02-01T22:33:53.193Z,98988.56
2023-02-01T22:36:19.820Z,98989.48
2023-02-01T22:38:47.788Z,98989.80
2023-02-01T22:41:14.435Z,98987.84
2023-02-01T22:43:41.171Z,98988.85
2023-02-01T22:46:14.192Z,98987.52
2023-02-01T22:48:41.769Z,98987.10
2023-02-01T22:51:21.957Z,98985.67
2023-02-01T22:53:56.192Z,98991.11
2023-02-01T22:56:27.481Z,98992.91
2023-02-01T22:58:55.747Z,98994.98
2023-02-01T23:01:22.530Z,98995.15
2023-02-01T23:03:49.870Z,98991.45
2023-02-01T23:06:18.009Z,98992.96
2023-02-01T23:08:45.404Z,98996.75
2023-02-01T23:11:12.140Z,98996.13
2023-02-01T23:13:39.493Z,98998.41
2023-02-01T23:16:07.970Z,98997.67
2023-02-01T23:18:35.026Z,99000.96
2023-02-01T23:21:03.583Z,98995.14
2023-02-01T23:23:30.106Z,99000.31
2023-02-01T23:25:58.098Z,98993.23
2023-02-01T23:28:26.427Z,98997.52
2023-02-01T23:30:53.177Z,98992.85
2023-02-01T23:33:26.418Z,98990.26
2023-02-01T23:35:57.971Z,98992.45
2023-02-01T23:38:26.760Z,98992.55
2023-02-01T23:40:58.218Z,98991.48
2023-02-01T23:43:43.737Z,98988.34
2023-02-01T23:46:10.667Z,98987.55
2023-02-01T23:48:37.753Z,98986.28
2023-02-01T23:51:04.936Z,98983.14
2023-02-01T23:53:32.908Z,98984.33
2023-02-01T23:56:00.472Z,98983.09
2023-02-01T23:58:27.139Z,98987.54
